createdAt,value
2022-11-05T00:01:45.591Z,99649.94
2022-11-05T00:04:31.280Z,99649.94
2022-11-05T00:07:21.190Z,99640.69
2022-11-05T00:09:48.377Z,99635.69
2022-11-05T00:12:33.301Z,99603.56
2022-11-05T00:15:18.164Z,99632.44
2022-11-05T00:17:44.409Z,99616.62
2022-11-05T00:20:13.631Z,99625.88
2022-11-05T00:22:58.601Z,99617.56
2022-11-05T00:25:25.172Z,99617.47
2022-11-05T00:27:53.155Z,99614.50
2022-11-05T00:30:25.187Z,99626.91
2022-11-05T00:32:52.775Z,99595.66
2022-11-05T00:35:20.977Z,99625.25
2022-11-05T00:37:50.380Z,99629.78
2022-11-05T00:40:17.554Z,99635.03
2022-11-05T00:43:02.827Z,99621.50
2022-11-05T00:45:30.583Z,99627.41
2022-11-05T00:48:15.473Z,99621.00
2022-11-05T00:50:42.029Z,99629.91
2022-11-05T00:53:08.582Z,99612.72
2022-11-05T00:55:40.031Z,99626.84
2022-11-05T00:58:12.109Z,99615.22
2022-11-05T01:00:40.542Z,99629.59
2022-11-05T01:03:10.614Z,99627.81
2022-11-05T01:05:45.481Z,99640.75
2022-11-05T01:08:13.468Z,99619.84
2022-11-05T01:10:44.991Z,99628.75
2022-11-05T01:13:13.382Z,99623.38
2022-11-05T01:15:40.035Z,99613.69
2022-11-05T01:18:06.379Z,99625.06
2022-11-05T01:20:32.936Z,99628.63
2022-11-05T01:22:59.510Z,99617.06
2022-11-05T01:25:25.751Z,99626.84
2022-11-05T01:27:52.625Z,99641.03
2022-11-05T01:30:18.903Z,99634.84
2022-11-05T01:32:45.140Z,99634.25
2022-11-05T01:35:14.172Z,99636.41
2022-11-05T01:37:40.437Z,99609.66
2022-11-05T01:40:08.459Z,99618.56
2022-11-05T01:42:34.981Z,99624.03
2022-11-05T01:45:07.201Z,99619.66
2022-11-05T01:47:57.821Z,99618.94
2022-11-05T01:50:28.016Z,99610.25
2022-11-05T01:52:58.183Z,99614.91
2022-11-05T01:55:26.793Z,99615.06
2022-11-05T01:57:53.889Z,99623.72
2022-11-05T02:00:20.108Z,99623.59
2022-11-05T02:02:47.365Z,99627.16
2022-11-05T02:05:14.575Z,99636.81
2022-11-05T02:07:41.073Z,99647.28
2022-11-05T02:10:10.140Z,99644.91
2022-11-05T02:12:38.269Z,99650.03
2022-11-05T02:15:05.782Z,99661.34
2022-11-05T02:17:47.241Z,99647.41
2022-11-05T02:20:28.707Z,99634.19
2022-11-05T02:23:20.713Z,99620.84
2022-11-05T02:26:12.150Z,99638.22
2022-11-05T02:29:02.678Z,99650.37
2022-11-05T02:31:36.778Z,99646.78
2022-11-05T02:34:08.445Z,99644.84
2022-11-05T02:36:54.275Z,99638.56
2022-11-05T02:39:32.513Z,99641.03
2022-11-05T02:42:20.570Z,99632.25
2022-11-05T02:44:58.978Z,99626.87
2022-11-05T02:47:41.750Z,99615.34
2022-11-05T02:50:37.686Z,99612.22
2022-11-05T02:53:10.857Z,99608.66
2022-11-05T02:55:41.610Z,99611.97
2022-11-05T02:58:08.850Z,99602.44
2022-11-05T03:00:35.312Z,99583.53
2022-11-05T03:03:02.368Z,99596.34
2022-11-05T03:05:48.973Z,99585.88
2022-11-05T03:08:41.442Z,99576.19
2022-11-05T03:11:14.256Z,99591.13
2022-11-05T03:13:47.060Z,99583.25
2022-11-05T03:16:19.446Z,99585.06
2022-11-05T03:19:30.899Z,99576.25
2022-11-05T03:22:03.151Z,99588.38
2022-11-05T03:24:42.767Z,99570.09
2022-11-05T03:27:12.986Z,99603.72
2022-11-05T03:29:43.615Z,99601.56
2022-11-05T03:32:11.808Z,99599.75
2022-11-05T03:34:50.502Z,99595.34
2022-11-05T03:37:22.048Z,99605.69
2022-11-05T03:39:55.450Z,99596.87
2022-11-05T03:42:26.515Z,99594.97
2022-11-05T03:44:55.521Z,99583.34
2022-11-05T03:47:24.725Z,99606.97
2022-11-05T03:50:03.886Z,99612.06
2022-11-05T03:52:35.836Z,99611.25
2022-11-05T03:55:02.089Z,99621.97
2022-11-05T03:57:37.374Z,99634.13
2022-11-05T04:00:07.985Z,99638.53
2022-11-05T04:02:37.946Z,99646.53
2022-11-05T04:05:05.332Z,99624.09
2022-11-05T04:08:14.081Z,99638.34
2022-11-05T04:10:59.611Z,99610.53
2022-11-05T04:13:25.939Z,99629.28
2022-11-05T04:16:12.397Z,99623.91
2022-11-05T04:18:39.025Z,99609.84
2022-11-05T04:21:24.703Z,99609.28
2022-11-05T04:24:09.228Z,99608.31
2022-11-05T04:26:41.442Z,99619.75
2022-11-05T04:29:26.850Z,99623.22
2022-11-05T04:31:53.542Z,99624.16
2022-11-05T04:34:22.006Z,99629.28
2022-11-05T04:36:49.780Z,99630.22
2022-11-05T04:39:17.967Z,99637.16
2022-11-05T04:41:45.433Z,99647.62
2022-11-05T04:44:11.688Z,99629.06
2022-11-05T04:46:38.198Z,99636.56
2022-11-05T04:49:04.444Z,99642.87
2022-11-05T04:51:30.691Z,99664.72
2022-11-05T04:53:57.217Z,99647.88
2022-11-05T04:56:24.554Z,99650.59
2022-11-05T04:58:50.917Z,99663.38
2022-11-05T05:01:22.904Z,99659.75
2022-11-05T05:03:50.717Z,99674.00
2022-11-05T05:06:17.659Z,99672.34
2022-11-05T05:08:44.673Z,99670.56
2022-11-05T05:11:12.961Z,99668.31
2022-11-05T05:13:39.207Z,99663.19
2022-11-05T05:16:11.438Z,99659.78
2022-11-05T05:18:40.982Z,99683.56
2022-11-05T05:21:30.247Z,99689.78
2022-11-05T05:23:56.537Z,99667.91
2022-11-05T05:26:23.073Z,99684.34
2022-11-05T05:28:49.308Z,99682.09
2022-11-05T05:31:15.539Z,99691.03
2022-11-05T05:33:42.049Z,99702.44
2022-11-05T05:36:11.489Z,99700.81
2022-11-05T05:38:38.037Z,99712.22
2022-11-05T05:41:04.615Z,99706.75
2022-11-05T05:43:32.355Z,99720.22
2022-11-05T05:46:07.415Z,99716.84
2022-11-05T05:48:34.560Z,99701.91
2022-11-05T05:51:11.593Z,99734.84
2022-11-05T05:53:38.723Z,99732.34
2022-11-05T05:56:05.609Z,99732.22
2022-11-05T05:58:34.309Z,99731.25
2022-11-05T06:01:06.629Z,99739.12
2022-11-05T06:03:33.657Z,99734.84
2022-11-05T06:06:08.666Z,99735.06
2022-11-05T06:08:35.935Z,99714.16
2022-11-05T06:11:03.530Z,99730.22
2022-11-05T06:13:30.288Z,99744.09
2022-11-05T06:16:01.554Z,99751.25
2022-11-05T06:18:28.347Z,99738.19
2022-11-05T06:20:55.885Z,99759.25
2022-11-05T06:23:22.413Z,99749.87
2022-11-05T06:25:48.640Z,99759.38
2022-11-05T06:28:14.866Z,99763.06
2022-11-05T06:30:41.364Z,99765.81
2022-11-05T06:33:07.754Z,99768.19
2022-11-05T06:35:34.123Z,99761.28
2022-11-05T06:38:03.690Z,99763.06
2022-11-05T06:40:29.916Z,99758.78
2022-11-05T06:42:56.145Z,99762.38
2022-11-05T06:45:22.717Z,99757.97
2022-11-05T06:47:48.984Z,99758.78
2022-11-05T06:50:15.433Z,99762.13
2022-11-05T06:52:41.942Z,99762.22
2022-11-05T06:55:09.070Z,99768.66
2022-11-05T06:57:37.593Z,99765.19
2022-11-05T07:00:07.796Z,99751.66
2022-11-05T07:02:34.466Z,99756.25
2022-11-05T07:05:00.682Z,99766.28
2022-11-05T07:07:27.210Z,99758.53
2022-11-05T07:09:53.446Z,99769.84
2022-11-05T07:12:19.680Z,99762.97
2022-11-05T07:14:46.194Z,99759.56
2022-11-05T07:17:12.482Z,99770.81
2022-11-05T07:19:38.766Z,99773.44
2022-11-05T07:22:05.273Z,99769.84
2022-11-05T07:24:31.526Z,99770.44
2022-11-05T07:26:57.744Z,99779.13
2022-11-05T07:29:24.260Z,99779.22
2022-11-05T07:31:50.545Z,99780.31
2022-11-05T07:34:16.768Z,99771.28
2022-11-05T07:36:43.337Z,99787.22
2022-11-05T07:39:10.047Z,99796.03
2022-11-05T07:41:36.288Z,99790.44
2022-11-05T07:44:03.896Z,99790.06
2022-11-05T07:46:30.627Z,99775.06
2022-11-05T07:48:56.853Z,99784.09
2022-11-05T07:51:23.398Z,99782.88
2022-11-05T07:53:49.639Z,99783.31
2022-11-05T07:56:16.405Z,99793.69
2022-11-05T07:58:43.059Z,99767.03
2022-11-05T08:01:09.423Z,99781.28
2022-11-05T08:03:36.215Z,99777.84
2022-11-05T08:06:02.526Z,99775.94
2022-11-05T08:08:28.765Z,99776.41
2022-11-05T08:11:03.082Z,99769.94
2022-11-05T08:13:29.320Z,99770.66
2022-11-05T08:15:58.682Z,99770.03
2022-11-05T08:18:31.338Z,99772.50
2022-11-05T08:20:59.510Z,99772.50
2022-11-05T08:23:29.447Z,99760.88
2022-11-05T08:25:56.770Z,99772.37
2022-11-05T08:28:24.436Z,99774.16
2022-11-05T08:30:52.347Z,99778.31
2022-11-05T08:33:19.174Z,99782.72
2022-11-05T08:35:45.705Z,99781.66
2022-11-05T08:38:15.505Z,99769.00
2022-11-05T08:40:42.974Z,99772.78
2022-11-05T08:43:12.399Z,99774.06
2022-11-05T08:45:41.706Z,99770.22
2022-11-05T08:48:10.377Z,99779.50
2022-11-05T08:50:37.389Z,99780.06
2022-11-05T08:53:05.005Z,99781.09
2022-11-05T08:55:31.390Z,99781.34
2022-11-05T08:58:02.273Z,99796.19
2022-11-05T09:00:30.010Z,99800.34
2022-11-05T09:02:59.710Z,99794.53
2022-11-05T09:05:26.540Z,99801.81
2022-11-05T09:07:57.891Z,99793.81
2022-11-05T09:10:28.347Z,99789.41
2022-11-05T09:12:54.672Z,99794.13
2022-11-05T09:15:20.994Z,99794.72
2022-11-05T09:17:47.500Z,99797.78
2022-11-05T09:20:13.753Z,99787.03
2022-11-05T09:22:43.219Z,99798.38
2022-11-05T09:25:10.080Z,99786.50
2022-11-05T09:27:36.304Z,99784.31
2022-11-05T09:30:02.578Z,99792.94
2022-11-05T09:32:31.026Z,99796.25
2022-11-05T09:34:57.245Z,99779.81
2022-11-05T09:37:23.508Z,99790.34
2022-11-05T09:39:50.023Z,99790.00
2022-11-05T09:42:17.725Z,99772.78
2022-11-05T09:44:48.352Z,99790.31
2022-11-05T09:47:19.751Z,99782.56
2022-11-05T09:49:50.246Z,99807.91
2022-11-05T09:52:20.911Z,99801.81
2022-11-05T09:54:48.761Z,99804.34
2022-11-05T09:57:19.709Z,99809.22
2022-11-05T09:59:49.981Z,99804.94
2022-11-05T10:02:23.684Z,99800.66
2022-11-05T10:04:53.484Z,99800.94
2022-11-05T10:07:26.654Z,99804.69
2022-11-05T10:10:02.114Z,99803.72
2022-11-05T10:12:44.963Z,99797.34
2022-11-05T10:15:38.106Z,99778.53
2022-11-05T10:18:19.577Z,99801.34
2022-11-05T10:20:46.377Z,99802.91
2022-11-05T10:23:15.566Z,99810.37
2022-11-05T10:25:51.259Z,99810.63
2022-11-05T10:28:21.252Z,99820.31
2022-11-05T10:30:51.071Z,99821.16
2022-11-05T10:33:31.669Z,99824.75
2022-11-05T10:36:04.448Z,99823.50
2022-11-05T10:38:31.474Z,99823.91
2022-11-05T10:41:20.115Z,99827.53
2022-11-05T10:43:51.853Z,99832.25
2022-11-05T10:46:33.799Z,99814.22
2022-11-05T10:49:26.259Z,99826.97
2022-11-05T10:51:56.085Z,99825.44
2022-11-05T10:54:25.102Z,99820.34
2022-11-05T10:56:51.336Z,99815.34
2022-11-05T10:59:26.168Z,99814.94
2022-11-05T11:02:15.477Z,99818.94
2022-11-05T11:04:41.955Z,99821.13
2022-11-05T11:07:21.941Z,99821.69
2022-11-05T11:09:49.308Z,99830.00
2022-11-05T11:12:21.455Z,99829.47
2022-11-05T11:15:14.171Z,99832.09
2022-11-05T11:17:40.914Z,99843.88
2022-11-05T11:20:16.434Z,99834.72
2022-11-05T11:22:54.165Z,99838.75
2022-11-05T11:25:25.575Z,99831.13
2022-11-05T11:27:52.618Z,99839.03
2022-11-05T11:30:20.407Z,99836.09
2022-11-05T11:32:47.804Z,99836.34
2022-11-05T11:35:22.716Z,99835.66
2022-11-05T11:37:49.834Z,99840.50
2022-11-05T11:40:25.201Z,99835.22
2022-11-05T11:42:54.688Z,99833.56
2022-11-05T11:45:32.022Z,99833.84
2022-11-05T11:48:02.140Z,99839.09
2022-11-05T11:50:39.666Z,99844.38
2022-11-05T11:53:21.238Z,99838.28
2022-11-05T11:55:58.602Z,99840.09
2022-11-05T11:58:37.997Z,99840.50
2022-11-05T12:01:33.254Z,99842.16
2022-11-05T12:04:15.166Z,99846.31
2022-11-05T12:06:47.407Z,99851.47
2022-11-05T12:09:19.863Z,99850.63
2022-11-05T12:11:51.823Z,99854.09
2022-11-05T12:15:00.926Z,99853.94
2022-11-05T12:17:33.714Z,99853.50
2022-11-05T12:20:30.005Z,99865.00
2022-11-05T12:23:15.134Z,99865.69
2022-11-05T12:25:58.246Z,99869.72
2022-11-05T12:29:04.481Z,99855.87
2022-11-05T12:31:35.264Z,99864.87
2022-11-05T12:34:38.871Z,99869.47
2022-11-05T12:37:12.255Z,99875.56
2022-11-05T12:39:59.871Z,99869.22
2022-11-05T12:43:23.702Z,99866.03
2022-11-05T12:46:00.630Z,99868.50
2022-11-05T12:48:38.448Z,99864.91
2022-11-05T12:51:19.410Z,99856.59
2022-11-05T12:53:54.985Z,99860.34
2022-11-05T12:56:34.356Z,99867.25
2022-11-05T12:59:06.423Z,99868.81
2022-11-05T13:01:39.930Z,99867.41
2022-11-05T13:04:14.770Z,99882.53
2022-11-05T13:06:43.342Z,99881.53
2022-11-05T13:09:20.390Z,99884.44
2022-11-05T13:12:06.781Z,99888.75
2022-11-05T13:14:50.577Z,99892.34
2022-11-05T13:17:20.408Z,99884.75
2022-11-05T13:19:59.700Z,99885.44
2022-11-05T13:22:25.846Z,99892.34
2022-11-05T13:25:07.298Z,99888.75
2022-11-05T13:27:59.680Z,99871.87
2022-11-05T13:30:31.896Z,99896.53
2022-11-05T13:33:26.695Z,99890.53
2022-11-05T13:36:33.524Z,99894.00
2022-11-05T13:39:09.362Z,99893.06
2022-11-05T13:42:01.573Z,99894.28
2022-11-05T13:44:39.677Z,99897.91
2022-11-05T13:47:20.223Z,99899.25
2022-11-05T13:50:23.909Z,99893.72
2022-11-05T13:53:10.583Z,99903.69
2022-11-05T13:56:05.631Z,99908.09
2022-11-05T13:58:40.807Z,99915.47
2022-11-05T14:01:16.256Z,99913.09
2022-11-05T14:03:51.057Z,99913.09
2022-11-05T14:06:30.214Z,99929.28
2022-11-05T14:09:00.305Z,99931.38
2022-11-05T14:11:32.440Z,99933.44
2022-11-05T14:14:01.936Z,99931.75
2022-11-05T14:16:54.898Z,99934.66
2022-11-05T14:19:31.220Z,99935.75
2022-11-05T14:21:58.080Z,99940.34
2022-11-05T14:24:40.420Z,99937.12
2022-11-05T14:27:06.656Z,99942.81
2022-11-05T14:29:44.040Z,99939.63
2022-11-05T14:32:43.806Z,99941.56
2022-11-05T14:35:16.505Z,99936.69
2022-11-05T14:37:56.139Z,99940.41
2022-11-05T14:40:26.214Z,99942.63
2022-11-05T14:42:55.268Z,99944.25
2022-11-05T14:45:29.351Z,99942.03
2022-11-05T14:48:01.310Z,99947.56
2022-11-05T14:50:35.701Z,99954.16
2022-11-05T14:53:11.347Z,99950.28
2022-11-05T14:55:40.454Z,99953.00
2022-11-05T14:58:36.798Z,99938.84
2022-11-05T15:01:06.585Z,99956.97
2022-11-05T15:03:45.395Z,99959.16
2022-11-05T15:06:21.898Z,99960.63
2022-11-05T15:08:48.328Z,99956.13
2022-11-05T15:11:16.392Z,99962.28
2022-11-05T15:13:51.649Z,99964.69
2022-11-05T15:16:23.141Z,99963.34
2022-11-05T15:18:50.056Z,99966.59
2022-11-05T15:21:17.844Z,99960.75
2022-11-05T15:23:46.129Z,99970.34
2022-11-05T15:26:23.889Z,99976.25
2022-11-05T15:28:53.972Z,99974.22
2022-11-05T15:31:31.857Z,99973.31
2022-11-05T15:34:26.573Z,99983.09
2022-11-05T15:37:00.164Z,99987.16
2022-11-05T15:39:40.451Z,99988.47
2022-11-05T15:42:18.906Z,99999.09
2022-11-05T15:44:47.606Z,100003.03
2022-11-05T15:47:34.137Z,100013.63
2022-11-05T15:50:02.879Z,100020.09
2022-11-05T15:52:37.165Z,100024.38
2022-11-05T15:55:13.853Z,100022.00
2022-11-05T15:57:50.402Z,100027.50
2022-11-05T16:00:23.819Z,100017.94
2022-11-05T16:03:01.796Z,100033.19
2022-11-05T16:05:31.587Z,100027.97
2022-11-05T16:07:59.532Z,100032.59
2022-11-05T16:10:30.796Z,100033.91
2022-11-05T16:12:57.186Z,100039.63
2022-11-05T16:15:26.196Z,100043.69
2022-11-05T16:17:55.289Z,100049.25
2022-11-05T16:20:23.668Z,100034.38
2022-11-05T16:22:54.606Z,100052.84
2022-11-05T16:25:26.845Z,100051.53
2022-11-05T16:27:53.626Z,100059.31
2022-11-05T16:30:20.537Z,100063.59
2022-11-05T16:32:47.691Z,100068.13
2022-11-05T16:35:19.947Z,100070.97
2022-11-05T16:37:51.778Z,100045.09
2022-11-05T16:40:24.369Z,100050.09
2022-11-05T16:42:52.786Z,100071.88
2022-11-05T16:45:22.162Z,100080.06
2022-11-05T16:47:48.980Z,100074.00
2022-11-05T16:50:23.030Z,100080.03
2022-11-05T16:52:49.916Z,100083.28
2022-11-05T16:55:17.614Z,100084.22
2022-11-05T16:57:45.968Z,100090.41
2022-11-05T17:00:17.613Z,100095.75
2022-11-05T17:02:45.281Z,100096.94
2022-11-05T17:05:26.746Z,100097.75
2022-11-05T17:07:53.699Z,100097.16
2022-11-05T17:10:21.361Z,100098.94
2022-11-05T17:12:48.273Z,100099.88
2022-11-05T17:15:36.982Z,100111.31
2022-11-05T17:18:04.845Z,100113.91
2022-11-05T17:20:41.605Z,100114.63
2022-11-05T17:23:22.865Z,100120.81
2022-11-05T17:25:52.851Z,100099.09
2022-11-05T17:28:19.992Z,100123.41
2022-11-05T17:30:52.265Z,100109.34
2022-11-05T17:33:20.760Z,100129.63
2022-11-05T17:35:47.322Z,100125.31
2022-11-05T17:38:13.866Z,100116.75
2022-11-05T17:40:41.466Z,100107.56
2022-11-05T17:43:08.257Z,100116.00
2022-11-05T17:45:35.141Z,100111.13
2022-11-05T17:48:03.381Z,100124.69
2022-11-05T17:50:30.234Z,100131.72
2022-11-05T17:52:56.856Z,100129.94
2022-11-05T17:55:23.609Z,100137.78
2022-11-05T17:57:51.302Z,100140.53
2022-11-05T18:00:20.832Z,100149.22
2022-11-05T18:02:49.592Z,100140.53
2022-11-05T18:05:17.778Z,100140.53
2022-11-05T18:07:44.867Z,100141.38
2022-11-05T18:10:12.152Z,100135.50
2022-11-05T18:12:39.378Z,100138.56
2022-11-05T18:15:06.741Z,100143.88
2022-11-05T18:17:33.943Z,100145.06
2022-11-05T18:20:00.448Z,100140.69
2022-11-05T18:22:26.982Z,100137.38
2022-11-05T18:24:54.798Z,100152.50
2022-11-05T18:27:24.561Z,100152.50
2022-11-05T18:29:51.187Z,100136.75
2022-11-05T18:32:18.002Z,100130.38
2022-11-05T18:34:44.468Z,100140.91
2022-11-05T18:37:11.072Z,100145.34
2022-11-05T18:39:37.889Z,100119.91
2022-11-05T18:42:04.893Z,100145.94
2022-11-05T18:44:36.279Z,100145.09
2022-11-05T18:47:06.908Z,100142.47
2022-11-05T18:49:33.425Z,100155.97
2022-11-05T18:51:59.909Z,100155.87
2022-11-05T18:54:26.825Z,100159.44
2022-11-05T18:56:53.301Z,100152.41
2022-11-05T18:59:36.860Z,100152.50
2022-11-05T19:02:04.955Z,100156.69
2022-11-05T19:04:31.593Z,100173.84
2022-11-05T19:07:03.272Z,100163.25
2022-11-05T19:09:32.026Z,100171.94
2022-11-05T19:11:58.472Z,100168.28
2022-11-05T19:14:24.942Z,100176.66
2022-11-05T19:16:51.723Z,100177.59
2022-11-05T19:19:18.364Z,100182.81
2022-11-05T19:21:45.023Z,100164.44
2022-11-05T19:24:16.865Z,100182.81
2022-11-05T19:26:44.089Z,100190.06
2022-11-05T19:29:10.582Z,100197.91
2022-11-05T19:31:37.354Z,100195.41
2022-11-05T19:34:05.539Z,100192.56
2022-11-05T19:36:33.124Z,100190.19
2022-11-05T19:39:07.393Z,100198.53
2022-11-05T19:41:33.848Z,100197.47
2022-11-05T19:44:01.929Z,100198.31
2022-11-05T19:46:29.216Z,100196.84
2022-11-05T19:48:55.693Z,100208.56
2022-11-05T19:51:25.285Z,100185.75
2022-11-05T19:53:52.939Z,100189.97
2022-11-05T19:56:24.094Z,100197.59
2022-11-05T19:58:51.832Z,100198.75
2022-11-05T20:01:19.107Z,100228.09
2022-11-05T20:03:46.678Z,100239.41
2022-11-05T20:06:19.218Z,100238.69
2022-11-05T20:09:15.300Z,100237.00
2022-11-05T20:11:32.563Z,100242.16
2022-11-05T20:13:59.360Z,100225.69
2022-11-05T20:16:29.443Z,100250.59
2022-11-05T20:18:57.341Z,100242.66
2022-11-05T20:21:24.181Z,100246.22
2022-11-05T20:23:50.752Z,100254.78
2022-11-05T20:26:17.424Z,100241.69
2022-11-05T20:28:44.391Z,100253.97
2022-11-05T20:31:13.704Z,100258.97
2022-11-05T20:33:40.901Z,100265.03
2022-11-05T20:36:10.843Z,100262.53
2022-11-05T20:38:37.326Z,100268.63
2022-11-05T20:41:09.276Z,100249.03
2022-11-05T20:43:37.280Z,100261.91
2022-11-05T20:46:04.224Z,100262.12
2022-11-05T20:48:34.620Z,100262.75
2022-11-05T20:51:06.584Z,100265.81
2022-11-05T20:53:33.111Z,100261.63
2022-11-05T20:56:02.494Z,100259.94
2022-11-05T20:58:33.553Z,100266.53
2022-11-05T21:01:00.015Z,100263.81
2022-11-05T21:03:27.325Z,100264.88
2022-11-05T21:05:59.731Z,100263.69
2022-11-05T21:08:27.487Z,100258.38
2022-11-05T21:10:54.935Z,100271.44
2022-11-05T21:13:21.802Z,100260.84
2022-11-05T21:15:59.136Z,100255.97
2022-11-05T21:18:30.746Z,100262.75
2022-11-05T21:20:57.644Z,100259.28
2022-11-05T21:23:24.104Z,100255.00
2022-11-05T21:25:50.916Z,100255.75
2022-11-05T21:28:18.637Z,100262.12
2022-11-05T21:30:46.217Z,100258.06
2022-11-05T21:33:17.615Z,100271.44
2022-11-05T21:35:46.540Z,100263.69
2022-11-05T21:38:14.748Z,100268.06
2022-11-05T21:40:41.537Z,100275.28
2022-11-05T21:43:08.628Z,100275.06
2022-11-05T21:45:38.428Z,100269.97
2022-11-05T21:48:05.192Z,100271.63
2022-11-05T21:50:50.156Z,100275.69
2022-11-05T21:53:36.253Z,100261.28
2022-11-05T21:56:39.476Z,100278.19
2022-11-05T21:59:25.090Z,100271.25
2022-11-05T22:02:01.339Z,100283.66
2022-11-05T22:04:30.309Z,100269.00
2022-11-05T22:06:57.151Z,100274.66
2022-11-05T22:09:24.893Z,100254.06
2022-11-05T22:11:51.944Z,100277.47
2022-11-05T22:14:18.391Z,100269.41
2022-11-05T22:16:44.854Z,100271.31
2022-11-05T22:19:11.635Z,100268.34
2022-11-05T22:21:38.197Z,100277.13
2022-11-05T22:24:05.756Z,100275.38
2022-11-05T22:26:32.750Z,100275.28
2022-11-05T22:28:59.228Z,100267.28
2022-11-05T22:31:25.717Z,100270.63
2022-11-05T22:33:52.477Z,100272.31
2022-11-05T22:36:18.958Z,100274.72
2022-11-05T22:38:45.454Z,100275.22
2022-11-05T22:41:19.073Z,100277.56
2022-11-05T22:43:46.297Z,100283.84
2022-11-05T22:46:19.044Z,100290.84
2022-11-05T22:48:45.851Z,100281.31
2022-11-05T22:51:14.957Z,100281.09
2022-11-05T22:53:41.864Z,100282.78
2022-11-05T22:56:10.393Z,100288.25
2022-11-05T22:58:36.730Z,100289.72
2022-11-05T23:01:04.326Z,100284.97
2022-11-05T23:03:32.445Z,100273.78
2022-11-05T23:06:03.586Z,100263.75
2022-11-05T23:08:49.333Z,100283.28
2022-11-05T23:11:35.723Z,100281.41
2022-11-05T23:14:02.648Z,100278.81
2022-11-05T23:16:47.434Z,100275.13
2022-11-05T23:19:32.338Z,100274.59
2022-11-05T23:22:17.425Z,100277.34
2022-11-05T23:24:43.950Z,100268.00
2022-11-05T23:27:10.212Z,100277.69
2022-11-05T23:29:36.634Z,100277.06
2022-11-05T23:32:21.957Z,100248.41
2022-11-05T23:34:48.194Z,100277.97
2022-11-05T23:37:33.176Z,100282.59
2022-11-05T23:39:59.433Z,100263.16
2022-11-05T23:42:44.742Z,100277.78
2022-11-05T23:45:29.674Z,100284.47
2022-11-05T23:48:15.252Z,100260.84
2022-11-05T23:50:43.754Z,100284.75
2022-11-05T23:53:10.454Z,100280.87
2022-11-05T23:55:36.899Z,100293.03
2022-11-05T23:58:03.383Z,100297.56
